Ban Chan, Thailand

10:49 AM ICT on August 30, 2016 (GMT +0700)
Nongsai Udonthani | | Change Station

Elev 577 ft 17.41 °N, 102.83 °E | Updated 12 seconds ago

Mostly Cloudy
Mostly Cloudy
83.1 °F
Feels Like 91 °F
N
0.0
Wind Variable Wind from ESE
Gusts 3.0 mph

Today
High -- | Low -- °F
--% Chance of Precip.
Yesterday
High -- | Low -- °F
Precip. -- in
Pressure 29.80 in
Visibility 3.7 miles
Clouds Mostly Cloudy 800 ft
Mostly Cloudy 4000 ft
Mostly Cloudy 8300 ft
Heat Index 91 °F
Dew Point 76 °F
Humidity 79%
Rainfall 0.02 in
Snow Depth Not available.
5:54 AM 6:23 PM
Waning Crescent, 5% visible
METAR VLVT 300330Z 14004KT 6000 BKN008 BKN040 BKN083 26/24 Q1009 NOSIG
Pressure 29.80 in
Visibility 3.7 miles
Clouds Mostly Cloudy 800 ft
Mostly Cloudy 4000 ft
Mostly Cloudy 8300 ft
Heat Index 91 °F
Dew Point 76 °F
Humidity 79%
Rainfall 0.02 in
Snow Depth Not available.
5:54 AM 6:23 PM
Waning Crescent, 5% visible
METAR VLVT 300330Z 14004KT 6000 BKN008 BKN040 BKN083 26/24 Q1009 NOSIG

10-Day Weather Forecast

No radar image for this location.
×

Almanac

Astronomy

Aug. 30, 2016 Rise Set
Actual Time
Civil Twilight
Nautical Twilight
Astronomical Twilight
Moon
Length of Visible Light
Length of Day
Tomorrow will be .
, % of the Moon is Illuminated

Today's Extremes

Country Highs Country Lows

Community

WunderPhotos

Upload Photos

1,935,783 photos uploaded!

WunderBlog® & News

Nearby

Air Quality

  Air Quality AQ Index Pollutant
Not available.

Snow Depth

Station Depth Elevation

Earthquake Activity

City Distance Mag. Time & Date
Minimum magnitude displayed is 2.5.

Coastal Water Temperatures

Place Temperature

Stations

Nearby Weather Stations

Station Location Temp. Windchill Dew Point Humidity Wind Precip. Elev Updated Type